sensor_id;sensor_type;location;lat;lon;timestamp;pressure;altitude;pressure_sealevel;temperature;humidity
44140;BME280;29803;51.048;4.686;2023-06-24T00:02:20;65085.03;;;-146.26;100.00
44140;BME280;29803;51.048;4.686;2023-06-24T00:04:54;65085.03;;;-146.26;100.00
44140;BME280;29803;51.048;4.686;2023-06-24T00:07:24;65085.03;;;-146.26;100.00
44140;BME280;29803;51.048;4.686;2023-06-24T00:09:56;65085.03;;;-146.26;100.00
44140;BME280;29803;51.048;4.686;2023-06-24T00:12:27;65085.03;;;-146.26;100.00
44140;BME280;29803;51.048;4.686;2023-06-24T00:14:57;65085.03;;;-146.26;100.00
44140;BME280;29803;51.048;4.686;2023-06-24T00:17:28;65085.03;;;-146.26;100.00
44140;BME280;29803;51.048;4.686;2023-06-24T00:19:58;65085.03;;;-146.26;100.00
44140;BME280;29803;51.048;4.686;2023-06-24T00:22:28;65085.03;;;-146.26;100.00
44140;BME280;29803;51.048;4.686;2023-06-24T00:24:59;65085.03;;;-146.26;100.00
44140;BME280;29803;51.048;4.686;2023-06-24T00:27:30;65085.03;;;-146.26;100.00
44140;BME280;29803;51.048;4.686;2023-06-24T00:30:01;65085.03;;;-146.26;100.00
44140;BME280;29803;51.048;4.686;2023-06-24T00:32:31;65085.03;;;-146.26;100.00
44140;BME280;29803;51.048;4.686;2023-06-24T00:35:01;65085.03;;;-146.26;100.00
44140;BME280;29803;51.048;4.686;2023-06-24T00:37:32;65085.03;;;-146.26;100.00
44140;BME280;29803;51.048;4.686;2023-06-24T00:40:03;65085.03;;;-146.26;100.00
44140;BME280;29803;51.048;4.686;2023-06-24T00:42:33;65085.03;;;-146.26;100.00
44140;BME280;29803;51.048;4.686;2023-06-24T00:45:04;65085.03;;;-146.26;100.00
44140;BME280;29803;51.048;4.686;2023-06-24T00:47:35;65085.03;;;-146.26;100.00
44140;BME280;29803;51.048;4.686;2023-06-24T00:50:06;65085.03;;;-146.26;100.00
44140;BME280;29803;51.048;4.686;2023-06-24T00:52:36;65085.03;;;-146.26;100.00
44140;BME280;29803;51.048;4.686;2023-06-24T00:55:11;65085.03;;;-146.26;100.00
44140;BME280;29803;51.048;4.686;2023-06-24T00:57:44;65085.03;;;-146.26;100.00
44140;BME280;29803;51.048;4.686;2023-06-24T01:00:15;65085.03;;;-146.26;100.00
44140;BME280;29803;51.048;4.686;2023-06-24T01:02:48;65085.03;;;-146.26;100.00
44140;BME280;29803;51.048;4.686;2023-06-24T01:05:19;65085.03;;;-146.26;100.00
44140;BME280;29803;51.048;4.686;2023-06-24T01:07:54;65085.03;;;-146.26;100.00
44140;BME280;29803;51.048;4.686;2023-06-24T01:10:25;65085.03;;;-146.26;100.00
44140;BME280;29803;51.048;4.686;2023-06-24T01:12:56;65085.03;;;-146.26;100.00
44140;BME280;29803;51.048;4.686;2023-06-24T01:15:26;65085.03;;;-146.26;100.00
44140;BME280;29803;51.048;4.686;2023-06-24T01:18:16;65085.03;;;-146.26;100.00
44140;BME280;29803;51.048;4.686;2023-06-24T01:21:10;65085.03;;;-146.26;100.00
44140;BME280;29803;51.048;4.686;2023-06-24T01:32:57;65085.03;;;-146.26;100.00
44140;BME280;29803;51.048;4.686;2023-06-24T01:35:32;65085.03;;;-146.26;100.00
44140;BME280;29803;51.048;4.686;2023-06-24T01:38:09;65085.03;;;-146.26;100.00
44140;BME280;29803;51.048;4.686;2023-06-24T01:40:44;65085.03;;;-146.26;100.00
44140;BME280;29803;51.048;4.686;2023-06-24T01:43:16;65085.03;;;-146.26;100.00
44140;BME280;29803;51.048;4.686;2023-06-24T01:45:50;65085.03;;;-146.26;100.00
44140;BME280;29803;51.048;4.686;2023-06-24T01:48:25;65085.03;;;-146.26;100.00
44140;BME280;29803;51.048;4.686;2023-06-24T01:51:12;65085.03;;;-146.26;100.00
44140;BME280;29803;51.048;4.686;2023-06-24T01:53:52;65085.03;;;-146.26;100.00
44140;BME280;29803;51.048;4.686;2023-06-24T01:56:25;65085.03;;;-146.26;100.00
44140;BME280;29803;51.048;4.686;2023-06-24T01:59:00;65085.03;;;-146.26;100.00
44140;BME280;29803;51.048;4.686;2023-06-24T02:01:32;65085.03;;;-146.26;100.00
44140;BME280;29803;51.048;4.686;2023-06-24T02:04:04;65085.03;;;-146.26;100.00
44140;BME280;29803;51.048;4.686;2023-06-24T02:06:40;65085.03;;;-146.26;100.00
44140;BME280;29803;51.048;4.686;2023-06-24T02:09:12;65085.03;;;-146.26;100.00
44140;BME280;29803;51.048;4.686;2023-06-24T02:11:43;65085.03;;;-146.26;100.00
44140;BME280;29803;51.048;4.686;2023-06-24T02:14:16;65085.03;;;-146.26;100.00
44140;BME280;29803;51.048;4.686;2023-06-24T02:16:47;65085.03;;;-146.26;100.00
44140;BME280;29803;51.048;4.686;2023-06-24T02:19:19;65085.03;;;-146.26;100.00
44140;BME280;29803;51.048;4.686;2023-06-24T02:21:51;65085.03;;;-146.26;100.00
44140;BME280;29803;51.048;4.686;2023-06-24T02:24:24;65085.03;;;-146.26;100.00
44140;BME280;29803;51.048;4.686;2023-06-24T02:26:56;65085.03;;;-146.26;100.00
44140;BME280;29803;51.048;4.686;2023-06-24T02:29:28;65085.03;;;-146.26;100.00
44140;BME280;29803;51.048;4.686;2023-06-24T02:32:00;65085.03;;;-146.26;100.00
44140;BME280;29803;51.048;4.686;2023-06-24T02:34:30;65085.03;;;-146.26;100.00
44140;BME280;29803;51.048;4.686;2023-06-24T02:37:01;65085.03;;;-146.26;100.00
44140;BME280;29803;51.048;4.686;2023-06-24T02:39:32;65085.03;;;-146.26;100.00
44140;BME280;29803;51.048;4.686;2023-06-24T02:42:02;65085.03;;;-146.26;100.00
44140;BME280;29803;51.048;4.686;2023-06-24T02:44:33;65085.03;;;-146.26;100.00
44140;BME280;29803;51.048;4.686;2023-06-24T02:47:05;65085.03;;;-146.26;100.00
44140;BME280;29803;51.048;4.686;2023-06-24T02:49:37;65085.03;;;-146.26;100.00
44140;BME280;29803;51.048;4.686;2023-06-24T02:52:09;65085.03;;;-146.26;100.00
44140;BME280;29803;51.048;4.686;2023-06-24T02:54:40;65085.03;;;-146.26;100.00
44140;BME280;29803;51.048;4.686;2023-06-24T02:57:11;65085.03;;;-146.26;100.00
44140;BME280;29803;51.048;4.686;2023-06-24T02:59:44;65085.03;;;-146.26;100.00
44140;BME280;29803;51.048;4.686;2023-06-24T03:02:16;65085.03;;;-146.26;100.00
44140;BME280;29803;51.048;4.686;2023-06-24T03:04:47;65085.03;;;-146.26;100.00
44140;BME280;29803;51.048;4.686;2023-06-24T03:07:19;65085.03;;;-146.26;100.00
44140;BME280;29803;51.048;4.686;2023-06-24T03:09:51;65085.03;;;-146.26;100.00
44140;BME280;29803;51.048;4.686;2023-06-24T03:12:22;65085.03;;;-146.26;100.00
44140;BME280;29803;51.048;4.686;2023-06-24T03:14:52;65085.03;;;-146.26;100.00
44140;BME280;29803;51.048;4.686;2023-06-24T03:17:23;65085.03;;;-146.26;100.00
44140;BME280;29803;51.048;4.686;2023-06-24T03:19:55;65085.03;;;-146.26;100.00
44140;BME280;29803;51.048;4.686;2023-06-24T03:22:25;65085.03;;;-146.26;100.00
44140;BME280;29803;51.048;4.686;2023-06-24T03:24:56;65085.03;;;-146.26;100.00
44140;BME280;29803;51.048;4.686;2023-06-24T03:27:27;65085.03;;;-146.26;100.00
44140;BME280;29803;51.048;4.686;2023-06-24T03:29:57;65085.03;;;-146.26;100.00
44140;BME280;29803;51.048;4.686;2023-06-24T03:32:28;65085.03;;;-146.26;100.00
44140;BME280;29803;51.048;4.686;2023-06-24T03:34:58;65085.03;;;-146.26;100.00
44140;BME280;29803;51.048;4.686;2023-06-24T03:37:29;65085.03;;;-146.26;100.00
44140;BME280;29803;51.048;4.686;2023-06-24T03:39:59;65085.03;;;-146.26;100.00
44140;BME280;29803;51.048;4.686;2023-06-24T03:42:29;65085.03;;;-146.26;100.00
44140;BME280;29803;51.048;4.686;2023-06-24T03:45:00;65085.03;;;-146.26;100.00
44140;BME280;29803;51.048;4.686;2023-06-24T03:47:30;65085.03;;;-146.26;100.00
44140;BME280;29803;51.048;4.686;2023-06-24T03:50:01;65085.03;;;-146.26;100.00
44140;BME280;29803;51.048;4.686;2023-06-24T03:52:31;65085.03;;;-146.26;100.00
44140;BME280;29803;51.048;4.686;2023-06-24T03:55:02;65085.03;;;-146.26;100.00
44140;BME280;29803;51.048;4.686;2023-06-24T03:57:34;65085.03;;;-146.26;100.00
44140;BME280;29803;51.048;4.686;2023-06-24T04:00:05;65085.03;;;-146.26;100.00
44140;BME280;29803;51.048;4.686;2023-06-24T04:02:52;65085.03;;;-146.26;100.00
44140;BME280;29803;51.048;4.686;2023-06-24T04:05:23;65085.03;;;-146.26;100.00
44140;BME280;29803;51.048;4.686;2023-06-24T04:07:54;65085.03;;;-146.26;100.00
44140;BME280;29803;51.048;4.686;2023-06-24T04:10:25;65085.03;;;-146.26;100.00
44140;BME280;29803;51.048;4.686;2023-06-24T04:12:56;65085.03;;;-146.26;100.00
44140;BME280;29803;51.048;4.686;2023-06-24T04:15:26;65085.03;;;-146.26;100.00
44140;BME280;29803;51.048;4.686;2023-06-24T04:17:56;65085.03;;;-146.26;100.00
44140;BME280;29803;51.048;4.686;2023-06-24T04:20:27;65085.03;;;-146.26;100.00
44140;BME280;29803;51.048;4.686;2023-06-24T04:22:57;65085.03;;;-146.26;100.00
44140;BME280;29803;51.048;4.686;2023-06-24T04:25:28;65085.03;;;-146.26;100.00
44140;BME280;29803;51.048;4.686;2023-06-24T04:27:58;65085.03;;;-146.26;100.00
44140;BME280;29803;51.048;4.686;2023-06-24T04:30:29;65085.03;;;-146.26;100.00
44140;BME280;29803;51.048;4.686;2023-06-24T04:32:59;65085.03;;;-146.26;100.00
44140;BME280;29803;51.048;4.686;2023-06-24T04:35:30;65085.03;;;-146.26;100.00
44140;BME280;29803;51.048;4.686;2023-06-24T04:38:00;65085.03;;;-146.26;100.00
44140;BME280;29803;51.048;4.686;2023-06-24T04:40:31;65085.03;;;-146.26;100.00
44140;BME280;29803;51.048;4.686;2023-06-24T04:43:01;65085.03;;;-146.26;100.00
44140;BME280;29803;51.048;4.686;2023-06-24T04:45:32;65085.03;;;-146.26;100.00
44140;BME280;29803;51.048;4.686;2023-06-24T04:48:02;65085.03;;;-146.26;100.00
44140;BME280;29803;51.048;4.686;2023-06-24T04:50:33;65085.03;;;-146.26;100.00
44140;BME280;29803;51.048;4.686;2023-06-24T04:53:03;65085.03;;;-146.26;100.00
44140;BME280;29803;51.048;4.686;2023-06-24T04:55:34;65085.03;;;-146.26;100.00
44140;BME280;29803;51.048;4.686;2023-06-24T04:58:04;65085.03;;;-146.26;100.00
44140;BME280;29803;51.048;4.686;2023-06-24T05:00:34;65085.03;;;-146.26;100.00
44140;BME280;29803;51.048;4.686;2023-06-24T05:03:05;65085.03;;;-146.26;100.00
44140;BME280;29803;51.048;4.686;2023-06-24T05:05:36;65085.03;;;-146.26;100.00
44140;BME280;29803;51.048;4.686;2023-06-24T05:08:06;65085.03;;;-146.26;100.00
44140;BME280;29803;51.048;4.686;2023-06-24T05:10:36;65085.03;;;-146.26;100.00
44140;BME280;29803;51.048;4.686;2023-06-24T05:13:07;65085.03;;;-146.26;100.00
44140;BME280;29803;51.048;4.686;2023-06-24T05:15:37;65085.03;;;-146.26;100.00
44140;BME280;29803;51.048;4.686;2023-06-24T05:18:08;65085.03;;;-146.26;100.00
44140;BME280;29803;51.048;4.686;2023-06-24T05:20:38;65085.03;;;-146.26;100.00
44140;BME280;29803;51.048;4.686;2023-06-24T05:23:09;65085.03;;;-146.26;100.00
44140;BME280;29803;51.048;4.686;2023-06-24T05:25:39;65085.03;;;-146.26;100.00
44140;BME280;29803;51.048;4.686;2023-06-24T05:28:13;65085.03;;;-146.26;100.00
44140;BME280;29803;51.048;4.686;2023-06-24T05:30:47;65085.03;;;-146.26;100.00
44140;BME280;29803;51.048;4.686;2023-06-24T05:33:17;65085.03;;;-146.26;100.00
44140;BME280;29803;51.048;4.686;2023-06-24T05:35:48;65085.03;;;-146.26;100.00
44140;BME280;29803;51.048;4.686;2023-06-24T05:38:19;65085.03;;;-146.26;100.00
44140;BME280;29803;51.048;4.686;2023-06-24T05:40:50;65085.03;;;-146.26;100.00
44140;BME280;29803;51.048;4.686;2023-06-24T05:43:20;65085.03;;;-146.26;100.00
44140;BME280;29803;51.048;4.686;2023-06-24T05:45:51;65085.03;;;-146.26;100.00
44140;BME280;29803;51.048;4.686;2023-06-24T05:48:21;65085.03;;;-146.26;100.00
44140;BME280;29803;51.048;4.686;2023-06-24T05:50:52;65085.03;;;-146.26;100.00
44140;BME280;29803;51.048;4.686;2023-06-24T05:53:22;65085.03;;;-146.26;100.00
44140;BME280;29803;51.048;4.686;2023-06-24T05:55:52;65085.03;;;-146.26;100.00
44140;BME280;29803;51.048;4.686;2023-06-24T05:58:23;65085.03;;;-146.26;100.00
44140;BME280;29803;51.048;4.686;2023-06-24T06:00:53;65085.03;;;-146.26;100.00
44140;BME280;29803;51.048;4.686;2023-06-24T06:03:25;65085.03;;;-146.26;100.00
44140;BME280;29803;51.048;4.686;2023-06-24T06:05:55;65085.03;;;-146.26;100.00
44140;BME280;29803;51.048;4.686;2023-06-24T06:08:26;65085.03;;;-146.26;100.00
44140;BME280;29803;51.048;4.686;2023-06-24T06:10:56;65085.03;;;-146.26;100.00
44140;BME280;29803;51.048;4.686;2023-06-24T06:13:27;65085.03;;;-146.26;100.00
44140;BME280;29803;51.048;4.686;2023-06-24T06:15:59;65085.03;;;-146.26;100.00
44140;BME280;29803;51.048;4.686;2023-06-24T06:18:29;65085.03;;;-146.26;100.00
44140;BME280;29803;51.048;4.686;2023-06-24T06:21:00;65085.03;;;-146.26;100.00
44140;BME280;29803;51.048;4.686;2023-06-24T06:23:30;65085.03;;;-146.26;100.00
44140;BME280;29803;51.048;4.686;2023-06-24T06:26:01;65085.03;;;-146.26;100.00
44140;BME280;29803;51.048;4.686;2023-06-24T06:28:31;65085.03;;;-146.26;100.00
44140;BME280;29803;51.048;4.686;2023-06-24T06:31:01;65085.03;;;-146.26;100.00
44140;BME280;29803;51.048;4.686;2023-06-24T06:33:32;65085.03;;;-146.26;100.00
44140;BME280;29803;51.048;4.686;2023-06-24T06:36:02;65085.03;;;-146.26;100.00
44140;BME280;29803;51.048;4.686;2023-06-24T06:38:33;65085.03;;;-146.26;100.00
44140;BME280;29803;51.048;4.686;2023-06-24T06:41:04;65085.03;;;-146.26;100.00
44140;BME280;29803;51.048;4.686;2023-06-24T06:43:34;65085.03;;;-146.26;100.00
44140;BME280;29803;51.048;4.686;2023-06-24T06:46:05;65085.03;;;-146.26;100.00
44140;BME280;29803;51.048;4.686;2023-06-24T06:48:35;65085.03;;;-146.26;100.00
44140;BME280;29803;51.048;4.686;2023-06-24T06:51:06;65085.03;;;-146.26;100.00
44140;BME280;29803;51.048;4.686;2023-06-24T06:53:36;65085.03;;;-146.26;100.00
44140;BME280;29803;51.048;4.686;2023-06-24T06:56:07;65085.03;;;-146.26;100.00
44140;BME280;29803;51.048;4.686;2023-06-24T06:58:37;65085.03;;;-146.26;100.00
44140;BME280;29803;51.048;4.686;2023-06-24T07:01:08;65085.03;;;-146.26;100.00
44140;BME280;29803;51.048;4.686;2023-06-24T07:03:39;65085.03;;;-146.26;100.00
44140;BME280;29803;51.048;4.686;2023-06-24T07:06:10;65085.03;;;-146.26;100.00
44140;BME280;29803;51.048;4.686;2023-06-24T07:08:40;65085.03;;;-146.26;100.00
44140;BME280;29803;51.048;4.686;2023-06-24T07:11:11;65085.03;;;-146.26;100.00
44140;BME280;29803;51.048;4.686;2023-06-24T07:13:41;65085.03;;;-146.26;100.00
44140;BME280;29803;51.048;4.686;2023-06-24T07:16:11;65085.03;;;-146.26;100.00
44140;BME280;29803;51.048;4.686;2023-06-24T07:18:42;65085.03;;;-146.26;100.00
44140;BME280;29803;51.048;4.686;2023-06-24T07:21:12;65085.03;;;-146.26;100.00
44140;BME280;29803;51.048;4.686;2023-06-24T07:23:43;65085.03;;;-146.26;100.00
44140;BME280;29803;51.048;4.686;2023-06-24T07:26:13;65085.03;;;-146.26;100.00
44140;BME280;29803;51.048;4.686;2023-06-24T07:28:44;65085.03;;;-146.26;100.00
44140;BME280;29803;51.048;4.686;2023-06-24T07:31:14;65085.03;;;-146.26;100.00
44140;BME280;29803;51.048;4.686;2023-06-24T07:33:45;65085.03;;;-146.26;100.00
44140;BME280;29803;51.048;4.686;2023-06-24T07:36:15;65085.03;;;-146.26;100.00
44140;BME280;29803;51.048;4.686;2023-06-24T07:38:45;65085.03;;;-146.26;100.00
44140;BME280;29803;51.048;4.686;2023-06-24T07:41:16;65085.03;;;-146.26;100.00
44140;BME280;29803;51.048;4.686;2023-06-24T07:43:46;65085.03;;;-146.26;100.00
44140;BME280;29803;51.048;4.686;2023-06-24T07:46:17;65085.03;;;-146.26;100.00
44140;BME280;29803;51.048;4.686;2023-06-24T07:48:47;65085.03;;;-146.26;100.00
44140;BME280;29803;51.048;4.686;2023-06-24T07:51:18;65085.03;;;-146.26;100.00
44140;BME280;29803;51.048;4.686;2023-06-24T07:53:48;65085.03;;;-146.26;100.00
44140;BME280;29803;51.048;4.686;2023-06-24T07:56:19;65085.03;;;-146.26;100.00
44140;BME280;29803;51.048;4.686;2023-06-24T07:58:49;65085.03;;;-146.26;100.00
44140;BME280;29803;51.048;4.686;2023-06-24T08:01:21;65085.03;;;-146.26;100.00
44140;BME280;29803;51.048;4.686;2023-06-24T08:03:51;65085.03;;;-146.26;100.00
44140;BME280;29803;51.048;4.686;2023-06-24T08:06:22;65085.03;;;-146.26;100.00
44140;BME280;29803;51.048;4.686;2023-06-24T08:08:53;65085.03;;;-146.26;100.00
44140;BME280;29803;51.048;4.686;2023-06-24T08:11:23;65085.03;;;-146.26;100.00
44140;BME280;29803;51.048;4.686;2023-06-24T08:13:54;65085.03;;;-146.26;100.00
44140;BME280;29803;51.048;4.686;2023-06-24T08:16:24;65085.03;;;-146.26;100.00
44140;BME280;29803;51.048;4.686;2023-06-24T08:18:54;65085.03;;;-146.26;100.00
44140;BME280;29803;51.048;4.686;2023-06-24T08:21:25;65085.03;;;-146.26;100.00
44140;BME280;29803;51.048;4.686;2023-06-24T08:23:55;65085.03;;;-146.26;100.00
44140;BME280;29803;51.048;4.686;2023-06-24T08:26:26;65085.03;;;-146.26;100.00
44140;BME280;29803;51.048;4.686;2023-06-24T08:28:56;65085.03;;;-146.26;100.00
44140;BME280;29803;51.048;4.686;2023-06-24T08:31:28;65085.03;;;-146.26;100.00
44140;BME280;29803;51.048;4.686;2023-06-24T08:33:59;65085.03;;;-146.26;100.00
44140;BME280;29803;51.048;4.686;2023-06-24T08:36:32;65085.03;;;-146.26;100.00
44140;BME280;29803;51.048;4.686;2023-06-24T08:39:03;65085.03;;;-146.26;100.00
44140;BME280;29803;51.048;4.686;2023-06-24T08:41:33;65085.03;;;-146.26;100.00
44140;BME280;29803;51.048;4.686;2023-06-24T08:44:03;65085.03;;;-146.26;100.00
44140;BME280;29803;51.048;4.686;2023-06-24T08:46:34;65085.03;;;-146.26;100.00
44140;BME280;29803;51.048;4.686;2023-06-24T08:51:45;65085.03;;;-146.26;100.00
44140;BME280;29803;51.048;4.686;2023-06-24T08:54:19;65085.03;;;-146.26;100.00
44140;BME280;29803;51.048;4.686;2023-06-24T08:56:50;65085.03;;;-146.26;100.00
44140;BME280;29803;51.048;4.686;2023-06-24T08:59:21;65085.03;;;-146.26;100.00
44140;BME280;29803;51.048;4.686;2023-06-24T09:01:51;65085.03;;;-146.26;100.00
44140;BME280;29803;51.048;4.686;2023-06-24T09:04:22;65085.03;;;-146.26;100.00
44140;BME280;29803;51.048;4.686;2023-06-24T09:06:52;65085.03;;;-146.26;100.00
44140;BME280;29803;51.048;4.686;2023-06-24T09:09:23;65085.03;;;-146.26;100.00
44140;BME280;29803;51.048;4.686;2023-06-24T09:11:57;65085.03;;;-146.26;100.00
44140;BME280;29803;51.048;4.686;2023-06-24T09:14:29;65085.03;;;-146.26;100.00
44140;BME280;29803;51.048;4.686;2023-06-24T09:17:00;65085.03;;;-146.26;100.00
44140;BME280;29803;51.048;4.686;2023-06-24T09:19:32;65085.03;;;-146.26;100.00
44140;BME280;29803;51.048;4.686;2023-06-24T09:22:07;65085.03;;;-146.26;100.00
44140;BME280;29803;51.048;4.686;2023-06-24T09:24:38;65085.03;;;-146.26;100.00
44140;BME280;29803;51.048;4.686;2023-06-24T09:27:08;65085.03;;;-146.26;100.00
44140;BME280;29803;51.048;4.686;2023-06-24T09:29:39;65085.03;;;-146.26;100.00
44140;BME280;29803;51.048;4.686;2023-06-24T09:32:10;65085.03;;;-146.26;100.00
44140;BME280;29803;51.048;4.686;2023-06-24T09:34:41;65085.03;;;-146.26;100.00
44140;BME280;29803;51.048;4.686;2023-06-24T09:37:21;65085.03;;;-146.26;100.00
44140;BME280;29803;51.048;4.686;2023-06-24T09:39:53;65085.03;;;-146.26;100.00
44140;BME280;29803;51.048;4.686;2023-06-24T09:42:24;65085.03;;;-146.26;100.00
44140;BME280;29803;51.048;4.686;2023-06-24T09:44:55;65085.03;;;-146.26;100.00
44140;BME280;29803;51.048;4.686;2023-06-24T09:47:26;65085.03;;;-146.26;100.00
44140;BME280;29803;51.048;4.686;2023-06-24T09:49:57;65085.03;;;-146.26;100.00
44140;BME280;29803;51.048;4.686;2023-06-24T09:52:28;65085.03;;;-146.26;100.00
44140;BME280;29803;51.048;4.686;2023-06-24T09:54:59;65085.03;;;-146.26;100.00
44140;BME280;29803;51.048;4.686;2023-06-24T09:57:31;65085.03;;;-146.26;100.00
44140;BME280;29803;51.048;4.686;2023-06-24T10:00:03;65085.03;;;-146.26;100.00
44140;BME280;29803;51.048;4.686;2023-06-24T10:02:34;65085.03;;;-146.26;100.00
44140;BME280;29803;51.048;4.686;2023-06-24T10:05:05;65085.03;;;-146.26;100.00
44140;BME280;29803;51.048;4.686;2023-06-24T10:07:36;65085.03;;;-146.26;100.00
44140;BME280;29803;51.048;4.686;2023-06-24T10:10:07;65085.03;;;-146.26;100.00
44140;BME280;29803;51.048;4.686;2023-06-24T11:50:03;102345.34;;;29.86;43.78
44140;BME280;29803;51.048;4.686;2023-06-24T11:55:25;102342.13;;;29.94;47.01
44140;BME280;29803;51.048;4.686;2023-06-24T11:57:57;102351.09;;;30.06;48.02
44140;BME280;29803;51.048;4.686;2023-06-24T12:00:30;102345.53;;;30.28;45.54
44140;BME280;29803;51.048;4.686;2023-06-24T12:03:04;102342.78;;;29.79;51.77
44140;BME280;29803;51.048;4.686;2023-06-24T12:05:36;102339.13;;;30.01;49.65
44140;BME280;29803;51.048;4.686;2023-06-24T12:08:09;102342.50;;;30.03;53.81
44140;BME280;29803;51.048;4.686;2023-06-24T12:10:40;102342.75;;;30.01;43.70
44140;BME280;29803;51.048;4.686;2023-06-24T12:13:10;102333.97;;;30.09;42.41
44140;BME280;29803;51.048;4.686;2023-06-24T12:15:42;102336.97;;;30.03;43.91
44140;BME280;29803;51.048;4.686;2023-06-24T12:18:12;102333.03;;;29.99;39.68
44140;BME280;29803;51.048;4.686;2023-06-24T12:20:44;102327.06;;;29.85;45.61
44140;BME280;29803;51.048;4.686;2023-06-24T12:23:14;102323.38;;;29.74;46.18
44140;BME280;29803;51.048;4.686;2023-06-24T12:25:45;102326.63;;;29.71;47.52
44140;BME280;29803;51.048;4.686;2023-06-24T12:28:16;102327.91;;;29.58;48.32
44140;BME280;29803;51.048;4.686;2023-06-24T12:30:46;102325.38;;;29.57;53.54
44140;BME280;29803;51.048;4.686;2023-06-24T12:33:17;102317.19;;;29.67;58.19
44140;BME280;29803;51.048;4.686;2023-06-24T12:35:49;102321.28;;;29.86;51.73
44140;BME280;29803;51.048;4.686;2023-06-24T12:38:20;102320.44;;;29.86;52.77
44140;BME280;29803;51.048;4.686;2023-06-24T12:40:50;102320.22;;;29.44;53.13
44140;BME280;29803;51.048;4.686;2023-06-24T12:43:21;102311.31;;;29.58;65.13
44140;BME280;29803;51.048;4.686;2023-06-24T12:45:52;102318.72;;;29.80;51.54
44140;BME280;29803;51.048;4.686;2023-06-24T12:48:22;102310.84;;;29.93;52.56
44140;BME280;29803;51.048;4.686;2023-06-24T12:50:53;102308.69;;;30.23;53.20
44140;BME280;29803;51.048;4.686;2023-06-24T12:53:23;102310.13;;;30.30;50.39
44140;BME280;29803;51.048;4.686;2023-06-24T12:55:55;102311.00;;;30.36;51.83
44140;BME280;29803;51.048;4.686;2023-06-24T12:58:26;102302.91;;;30.29;47.20
44140;BME280;29803;51.048;4.686;2023-06-24T13:00:57;102307.78;;;30.17;47.09
44140;BME280;29803;51.048;4.686;2023-06-24T13:03:28;102297.56;;;30.17;49.44
44140;BME280;29803;51.048;4.686;2023-06-24T13:05:58;102299.19;;;29.91;45.79
44140;BME280;29803;51.048;4.686;2023-06-24T13:08:29;102297.13;;;30.04;50.81
44140;BME280;29803;51.048;4.686;2023-06-24T13:10:59;102288.59;;;30.10;52.24
44140;BME280;29803;51.048;4.686;2023-06-24T13:13:30;102297.69;;;30.06;48.58
44140;BME280;29803;51.048;4.686;2023-06-24T13:16:00;102288.88;;;30.09;57.64
44140;BME280;29803;51.048;4.686;2023-06-24T13:18:31;102289.81;;;30.20;51.29
44140;BME280;29803;51.048;4.686;2023-06-24T13:21:01;102294.28;;;30.26;51.85
44140;BME280;29803;51.048;4.686;2023-06-24T13:23:32;102294.66;;;30.34;46.56
44140;BME280;29803;51.048;4.686;2023-06-24T13:26:04;102285.56;;;30.39;46.04
44140;BME280;29803;51.048;4.686;2023-06-24T13:28:34;102283.25;;;30.31;46.65
44140;BME280;29803;51.048;4.686;2023-06-24T13:31:05;102283.84;;;30.06;45.92
44140;BME280;29803;51.048;4.686;2023-06-24T13:33:35;102283.00;;;30.05;51.81
44140;BME280;29803;51.048;4.686;2023-06-24T13:36:07;102277.22;;;30.07;51.89
44140;BME280;29803;51.048;4.686;2023-06-24T13:38:39;102276.97;;;30.08;50.16
44140;BME280;29803;51.048;4.686;2023-06-24T13:41:09;102276.91;;;30.03;42.75
44140;BME280;29803;51.048;4.686;2023-06-24T13:43:40;102284.16;;;30.09;43.38
44140;BME280;29803;51.048;4.686;2023-06-24T13:46:11;102274.09;;;30.25;54.05
44140;BME280;29803;51.048;4.686;2023-06-24T13:48:42;102274.53;;;30.44;48.92
44140;BME280;29803;51.048;4.686;2023-06-24T13:51:13;102264.84;;;30.47;48.69
44140;BME280;29803;51.048;4.686;2023-06-24T13:53:44;102271.09;;;30.32;53.20
44140;BME280;29803;51.048;4.686;2023-06-24T13:56:15;102260.59;;;30.34;53.35
44140;BME280;29803;51.048;4.686;2023-06-24T13:58:46;102266.97;;;30.34;44.79
44140;BME280;29803;51.048;4.686;2023-06-24T14:01:17;102263.06;;;30.30;46.17
44140;BME280;29803;51.048;4.686;2023-06-24T14:03:48;102257.22;;;30.27;57.70
44140;BME280;29803;51.048;4.686;2023-06-24T14:06:20;102265.31;;;30.06;57.53
44140;BME280;29803;51.048;4.686;2023-06-24T14:08:51;102254.25;;;30.06;57.90
44140;BME280;29803;51.048;4.686;2023-06-24T14:11:22;102251.09;;;29.92;52.82
44140;BME280;29803;51.048;4.686;2023-06-24T14:13:53;102255.25;;;29.95;53.37
44140;BME280;29803;51.048;4.686;2023-06-24T14:16:24;102254.84;;;30.08;73.22
44140;BME280;29803;51.048;4.686;2023-06-24T14:18:54;102252.75;;;30.21;58.50
44140;BME280;29803;51.048;4.686;2023-06-24T14:21:25;102248.88;;;30.22;58.21
44140;BME280;29803;51.048;4.686;2023-06-24T14:23:55;102249.13;;;30.20;55.14
44140;BME280;29803;51.048;4.686;2023-06-24T14:26:26;102239.59;;;30.38;47.87
44140;BME280;29803;51.048;4.686;2023-06-24T14:28:56;102241.81;;;30.41;59.27
44140;BME280;29803;51.048;4.686;2023-06-24T14:31:27;102246.06;;;30.54;51.99
44140;BME280;29803;51.048;4.686;2023-06-24T14:33:57;102240.78;;;30.52;54.83
44140;BME280;29803;51.048;4.686;2023-06-24T14:36:28;102239.19;;;30.61;48.31
44140;BME280;29803;51.048;4.686;2023-06-24T14:38:58;102234.56;;;30.72;48.06
44140;BME280;29803;51.048;4.686;2023-06-24T14:41:29;102235.06;;;30.64;47.37
44140;BME280;29803;51.048;4.686;2023-06-24T14:44:00;102232.81;;;30.18;49.16
44140;BME280;29803;51.048;4.686;2023-06-24T14:46:30;102231.78;;;29.98;54.02
44140;BME280;29803;51.048;4.686;2023-06-24T14:49:01;102222.47;;;29.82;52.29